createdAt,value
2022-11-04T00:01:57.006Z,21.2
2022-11-04T00:04:14.455Z,21.8
2022-11-04T00:06:32.111Z,21.1
2022-11-04T00:08:49.826Z,20.9
2022-11-04T00:11:07.597Z,21
2022-11-04T00:13:25.275Z,21.1
2022-11-04T00:15:42.989Z,21.3
2022-11-04T00:20:18.696Z,20.8
2022-11-04T00:22:35.912Z,21.4
2022-11-04T00:24:53.698Z,21.2
2022-11-04T00:27:11.360Z,20.8
2022-11-04T00:29:29.159Z,21.1
2022-11-04T00:31:46.780Z,20.6
2022-11-04T00:34:04.425Z,21.2
2022-11-04T00:40:57.592Z,20.8
2022-11-04T00:43:15.401Z,21.2
2022-11-04T00:45:33.100Z,20.9
2022-11-04T00:47:50.944Z,20.7
2022-11-04T00:50:08.524Z,20.7
2022-11-04T00:52:26.180Z,20.8
2022-11-04T00:54:43.714Z,21.2
2022-11-04T00:57:01.504Z,21.3
2022-11-04T00:59:19.237Z,21.2
2022-11-04T01:01:37.046Z,20.9
2022-11-04T01:03:54.680Z,20.9
2022-11-04T01:06:13.646Z,20.9
2022-11-04T01:13:05.889Z,20.8
2022-11-04T01:15:23.286Z,21
2022-11-04T01:17:40.969Z,20.8
2022-11-04T01:19:58.607Z,20.8
2022-11-04T01:22:16.205Z,21.2
2022-11-04T01:24:34.079Z,21
2022-11-04T01:26:51.759Z,21.3
2022-11-04T01:29:09.451Z,20.9
2022-11-04T01:31:27.197Z,20.9
2022-11-04T01:33:44.929Z,20.8
2022-11-04T01:36:02.645Z,21.1
2022-11-04T01:38:20.279Z,21.1
2022-11-04T01:40:37.968Z,20.9
2022-11-04T01:42:55.448Z,21.3
2022-11-04T01:45:13.105Z,21.1
2022-11-04T01:47:30.653Z,21
2022-11-04T01:49:48.362Z,21.3
2022-11-04T01:52:06.192Z,21
2022-11-04T01:54:23.486Z,21.4
2022-11-04T01:56:41.021Z,21
2022-11-04T01:58:58.628Z,20.8
2022-11-04T02:01:16.509Z,21.1
2022-11-04T02:03:34.126Z,21.3
2022-11-04T02:05:51.809Z,21
2022-11-04T02:08:09.497Z,21.2
2022-11-04T02:10:27.046Z,20.9
2022-11-04T02:12:44.700Z,20.8
2022-11-04T02:15:02.389Z,20.8
2022-11-04T02:17:20.097Z,20.9
2022-11-04T02:19:37.549Z,21.2
2022-11-04T02:21:55.209Z,20.7
2022-11-04T02:24:12.688Z,21.3
2022-11-04T02:26:30.283Z,21.1
2022-11-04T02:28:47.842Z,21.2
2022-11-04T02:31:05.413Z,21.3
2022-11-04T02:33:23.020Z,20.8
2022-11-04T02:35:40.734Z,21.1
2022-11-04T02:40:15.931Z,21.4
2022-11-04T02:42:33.450Z,20.9
2022-11-04T02:44:51.175Z,21.2
2022-11-04T02:49:26.778Z,21
2022-11-04T02:51:44.167Z,20.9
2022-11-04T02:54:01.724Z,21.2
2022-11-04T02:58:36.971Z,21.3
2022-11-04T03:00:39.405Z,21.3
2022-11-04T03:00:54.748Z,21.8
2022-11-04T03:03:12.316Z,21.3
2022-11-04T03:05:29.849Z,20.9
2022-11-04T03:07:47.386Z,20.9
2022-11-04T03:10:04.916Z,21.1
2022-11-04T03:14:39.927Z,21
2022-11-04T03:16:57.464Z,20.9
2022-11-04T03:19:15.085Z,21.2
2022-11-04T03:21:32.600Z,21.3
2022-11-04T03:23:50.295Z,20.9
2022-11-04T03:26:07.789Z,21
2022-11-04T03:28:25.342Z,20.9
2022-11-04T03:30:42.834Z,21.2
2022-11-04T03:35:17.855Z,21.1
2022-11-04T03:37:35.398Z,21.3
2022-11-04T03:39:52.871Z,21
2022-11-04T03:42:10.418Z,21
2022-11-04T03:46:45.589Z,21.4
2022-11-04T03:49:03.253Z,21.5
2022-11-04T03:51:20.918Z,21.5
2022-11-04T03:53:38.498Z,21.2
2022-11-04T03:55:56.156Z,21.4
2022-11-04T03:58:13.698Z,20.9
2022-11-04T04:00:31.285Z,21
2022-11-04T04:02:48.797Z,21.1
2022-11-04T04:07:23.978Z,21.3
2022-11-04T04:09:41.799Z,21
2022-11-04T04:11:59.030Z,20.9
2022-11-04T04:14:16.558Z,21.1
2022-11-04T04:18:53.981Z,21
2022-11-04T04:21:09.204Z,21.3
2022-11-04T04:25:44.241Z,21.2
2022-11-04T04:28:01.938Z,20.9
2022-11-04T04:30:19.420Z,21.2
2022-11-04T04:32:37.201Z,20.9
2022-11-04T04:34:54.744Z,21
2022-11-04T04:37:12.602Z,21.2
2022-11-04T04:39:30.282Z,21.2
2022-11-04T04:41:47.759Z,21
2022-11-04T04:44:05.461Z,21
2022-11-04T04:46:22.981Z,20.9
2022-11-04T04:48:40.760Z,21.1
2022-11-04T04:50:58.305Z,20.9
2022-11-04T04:53:16.039Z,21.2
2022-11-04T04:55:38.843Z,21
2022-11-04T04:57:51.465Z,21
2022-11-04T05:00:09.015Z,21
2022-11-04T05:02:26.663Z,21.4
2022-11-04T05:04:44.504Z,21.9
2022-11-04T05:07:02.193Z,22.3
2022-11-04T05:09:19.995Z,21
2022-11-04T05:11:37.565Z,21
2022-11-04T05:13:55.426Z,20.9
2022-11-04T05:16:13.073Z,21.1
2022-11-04T05:18:30.805Z,21.2
2022-11-04T05:20:48.437Z,20.9
2022-11-04T05:23:06.112Z,21.1
2022-11-04T05:25:23.705Z,21.2
2022-11-04T05:27:41.303Z,21.3
2022-11-04T05:29:43.884Z,20.9
2022-11-04T05:29:59.072Z,21.2
2022-11-04T05:32:01.399Z,21.3
2022-11-04T05:32:16.715Z,20.9
2022-11-04T05:34:34.512Z,20.8
2022-11-04T05:36:52.128Z,21
2022-11-04T05:39:09.985Z,21.3
2022-11-04T05:41:27.922Z,20.9
2022-11-04T05:43:45.378Z,20.9
2022-11-04T05:46:03.080Z,21.3
2022-11-04T05:48:20.571Z,20.7
2022-11-04T05:52:56.032Z,20.8
2022-11-04T05:55:13.948Z,20.9
2022-11-04T05:57:16.253Z,21.1
2022-11-04T05:57:31.555Z,20.9
2022-11-04T05:59:49.441Z,20.8
2022-11-04T06:02:07.137Z,21.3
2022-11-04T06:04:09.655Z,21.6
2022-11-04T06:04:24.812Z,21
2022-11-04T06:06:42.509Z,21
2022-11-04T06:09:00.396Z,21.2
2022-11-04T06:11:17.984Z,21.3
2022-11-04T06:13:35.621Z,20.8
2022-11-04T06:15:53.549Z,21
2022-11-04T06:18:11.600Z,20.8
2022-11-04T06:20:29.177Z,20.8
2022-11-04T06:22:46.657Z,21.1
2022-11-04T06:25:04.569Z,20.9
2022-11-04T06:27:22.551Z,21
2022-11-04T06:29:40.803Z,20.9
2022-11-04T06:31:58.536Z,20.8
2022-11-04T06:34:16.261Z,20.8
2022-11-04T06:36:34.153Z,20.9
2022-11-04T06:38:51.749Z,21.3
2022-11-04T06:41:09.542Z,21.1
2022-11-04T06:43:27.334Z,20.9
2022-11-04T06:45:45.328Z,21.1
2022-11-04T06:48:03.059Z,21
2022-11-04T06:50:20.983Z,21.1
2022-11-04T06:52:42.235Z,20.9
2022-11-04T06:57:14.120Z,21.3
2022-11-04T06:59:32.078Z,21.1
2022-11-04T07:01:49.673Z,21.3
2022-11-04T07:04:07.277Z,20.9
2022-11-04T07:06:25.187Z,21.5
2022-11-04T07:08:42.784Z,21.3
2022-11-04T07:11:00.679Z,21.6
2022-11-04T07:13:18.410Z,21.6
2022-11-04T07:15:36.053Z,21.4
2022-11-04T07:17:53.879Z,21.1
2022-11-04T07:20:11.605Z,21.2
2022-11-04T07:22:14.186Z,21.1
2022-11-04T07:22:29.879Z,20.9
2022-11-04T07:24:47.024Z,21.3
2022-11-04T07:26:49.581Z,21.4
2022-11-04T07:27:04.856Z,21.4
2022-11-04T07:29:22.448Z,21.4
2022-11-04T07:31:40.280Z,21.6
2022-11-04T07:33:57.797Z,21.3
2022-11-04T07:36:15.550Z,22
2022-11-04T07:38:33.264Z,21.3
2022-11-04T07:40:50.921Z,21.3
2022-11-04T07:43:08.389Z,21.4
2022-11-04T07:45:26.037Z,21.2
2022-11-04T07:47:43.768Z,21.7
2022-11-04T07:50:04.025Z,21.5
2022-11-04T07:52:19.260Z,21.8
2022-11-04T07:54:36.630Z,21.9
2022-11-04T07:56:54.503Z,21.5
2022-11-04T07:59:12.309Z,21.5
2022-11-04T08:01:29.784Z,21.4
2022-11-04T08:03:47.118Z,21.3
2022-11-04T08:06:04.501Z,21.3
2022-11-04T08:08:22.245Z,21.4
2022-11-04T08:10:39.899Z,21.5
2022-11-04T08:12:57.653Z,21.4
2022-11-04T08:15:14.914Z,21.3
2022-11-04T08:17:17.118Z,21.3
2022-11-04T08:17:32.395Z,21.2
2022-11-04T08:19:49.632Z,21.3
2022-11-04T08:22:07.197Z,21.3
2022-11-04T08:24:24.446Z,21.3
2022-11-04T08:26:41.990Z,21.3
2022-11-04T08:28:59.016Z,21.4
2022-11-04T08:31:16.278Z,21.4
2022-11-04T08:33:33.781Z,21.4
2022-11-04T08:35:51.011Z,21.3
2022-11-04T08:38:08.503Z,21.4
2022-11-04T08:40:25.786Z,21.5
2022-11-04T08:42:43.744Z,21.6
2022-11-04T08:45:01.552Z,21.4
2022-11-04T08:47:18.357Z,21.3
2022-11-04T08:49:35.732Z,21.6
2022-11-04T08:51:53.111Z,21.5
2022-11-04T08:54:10.427Z,21.4
2022-11-04T08:56:27.846Z,21.6
2022-11-04T08:58:45.720Z,21.6
2022-11-04T09:01:03.017Z,21.4
2022-11-04T09:03:20.882Z,21.4
2022-11-04T09:05:38.266Z,21.5
2022-11-04T09:07:55.998Z,21.8
2022-11-04T09:10:13.466Z,21.5
2022-11-04T09:12:31.256Z,21.6
2022-11-04T09:14:49.056Z,21.6
2022-11-04T09:17:06.326Z,21.6
2022-11-04T09:19:24.109Z,21.7
2022-11-04T09:21:41.636Z,21.4
2022-11-04T09:23:59.398Z,21.7
2022-11-04T09:26:16.953Z,21.5
2022-11-04T09:28:35.058Z,21.5
2022-11-04T09:30:54.143Z,21.7
2022-11-04T09:32:54.868Z,21.9
2022-11-04T09:33:10.472Z,21.4
2022-11-04T09:35:27.786Z,21.6
2022-11-04T09:37:30.087Z,21.7
2022-11-04T09:37:45.412Z,21.7
2022-11-04T09:40:03.232Z,21.7
2022-11-04T09:42:20.668Z,21.6
2022-11-04T09:44:53.583Z,21.7
2022-11-04T09:47:15.727Z,21.6
2022-11-04T09:49:30.448Z,21.9
2022-11-04T09:51:59.088Z,21.6
2022-11-04T09:54:16.585Z,22
2022-11-04T09:56:34.201Z,21.7
2022-11-04T09:58:51.847Z,21.8
2022-11-04T10:01:09.472Z,21.8
2022-11-04T10:03:27.219Z,21.7
2022-11-04T10:05:29.348Z,21.7
2022-11-04T10:05:44.604Z,21.5
2022-11-04T10:08:02.257Z,21.8
2022-11-04T10:10:19.948Z,21.7
2022-11-04T10:12:37.509Z,21.8
2022-11-04T10:14:55.059Z,21.7
2022-11-04T10:17:12.685Z,21.8
2022-11-04T10:19:30.478Z,21.7
2022-11-04T10:21:48.094Z,21.8
2022-11-04T10:24:05.503Z,21.7
2022-11-04T10:26:23.198Z,21.8
2022-11-04T10:28:40.832Z,21.6
2022-11-04T10:30:58.485Z,21.7
2022-11-04T10:33:16.256Z,21.7
2022-11-04T10:35:33.783Z,21.8
2022-11-04T10:37:51.268Z,21.8
2022-11-04T10:40:09.158Z,21.8
2022-11-04T10:42:26.607Z,21.8
2022-11-04T10:44:44.265Z,21.9
2022-11-04T10:47:01.990Z,21.7
2022-11-04T10:49:19.481Z,21.7
2022-11-04T10:51:48.436Z,21.9
2022-11-04T10:54:05.942Z,21.8
2022-11-04T10:56:23.539Z,21.9
2022-11-04T10:58:41.091Z,21.9
2022-11-04T11:00:58.664Z,21.6
2022-11-04T11:03:16.305Z,21.8
2022-11-04T11:05:34.007Z,21.6
2022-11-04T11:07:51.626Z,21.9
2022-11-04T11:10:09.207Z,21.8
2022-11-04T11:12:51.334Z,21.6
2022-11-04T11:15:04.466Z,21.9
2022-11-04T11:17:06.742Z,21.8
2022-11-04T11:17:22.168Z,22.1
2022-11-04T11:19:39.701Z,21.8
2022-11-04T11:21:57.551Z,21.8
2022-11-04T11:24:14.930Z,21.8
2022-11-04T11:26:32.662Z,21.8
2022-11-04T11:28:53.225Z,21.6
2022-11-04T11:31:07.868Z,21.8
2022-11-04T11:33:10.809Z,21.9
2022-11-04T11:33:25.525Z,21.4
2022-11-04T11:35:43.063Z,21.9
2022-11-04T11:38:00.747Z,21.8
2022-11-04T11:40:18.351Z,21.7
2022-11-04T11:42:52.402Z,21.8
2022-11-04T11:45:10.025Z,22
2022-11-04T11:47:27.686Z,21.8
2022-11-04T11:49:45.406Z,21.7
2022-11-04T11:52:02.958Z,21.9
2022-11-04T11:54:20.556Z,21.6
2022-11-04T11:56:59.044Z,21.6
2022-11-04T12:02:54.454Z,23
2022-11-04T12:11:51.053Z,21.9
2022-11-04T12:14:11.005Z,21.7
2022-11-04T12:16:28.617Z,21.8
2022-11-04T12:18:46.232Z,21.9
2022-11-04T12:21:03.944Z,21.9
2022-11-04T12:23:21.416Z,21.6
2022-11-04T12:25:39.179Z,21.5
2022-11-04T12:27:56.724Z,21.6
2022-11-04T12:30:14.322Z,21.7
2022-11-04T12:32:32.347Z,21.6
2022-11-04T12:34:50.401Z,21.6
2022-11-04T12:37:07.298Z,21.6
2022-11-04T12:39:24.948Z,21.6
2022-11-04T12:42:32.580Z,21.6
2022-11-04T12:44:45.167Z,21.9
2022-11-04T12:47:02.940Z,21.6
2022-11-04T12:49:20.629Z,21.7
2022-11-04T12:51:38.359Z,21.6
2022-11-04T12:53:56.217Z,21.8
2022-11-04T12:56:13.867Z,21.8
2022-11-04T12:58:31.782Z,21.6
2022-11-04T13:00:49.540Z,21.6
2022-11-04T13:03:07.503Z,21.6
2022-11-04T13:05:25.119Z,21.9
2022-11-04T13:07:42.492Z,21.5
2022-11-04T13:10:00.411Z,21.7
2022-11-04T13:12:02.793Z,21.8
2022-11-04T13:12:17.996Z,20.9
2022-11-04T13:14:35.459Z,21.3
2022-11-04T13:16:53.019Z,21.8
2022-11-04T13:19:10.925Z,21.4
2022-11-04T13:21:28.501Z,21.6
2022-11-04T13:23:46.356Z,21.5
2022-11-04T13:26:03.980Z,21.6
2022-11-04T13:28:21.581Z,21.4
2022-11-04T13:30:39.048Z,21.6
2022-11-04T13:32:56.395Z,21
2022-11-04T13:35:14.198Z,20.9
2022-11-04T13:39:49.242Z,20.9
2022-11-04T13:42:06.517Z,21
2022-11-04T13:44:24.052Z,21.1
2022-11-04T13:46:41.390Z,21
2022-11-04T13:48:59.210Z,21.1
2022-11-04T13:51:16.796Z,21
2022-11-04T13:55:51.397Z,21.1
2022-11-04T14:00:38.913Z,21
2022-11-04T14:05:13.799Z,20.9
2022-11-04T14:14:23.747Z,21
2022-11-04T14:16:40.643Z,21.2
2022-11-04T14:18:58.186Z,21
2022-11-04T14:23:33.123Z,20.9
2022-11-04T14:28:08.249Z,21.4
2022-11-04T14:30:25.933Z,21.4
2022-11-04T14:32:43.588Z,21.2
2022-11-04T14:35:01.258Z,21.3
2022-11-04T14:39:36.419Z,21.3
2022-11-04T14:41:53.934Z,21.3
2022-11-04T14:44:11.797Z,21.3
2022-11-04T14:46:29.503Z,21.1
2022-11-04T14:51:04.849Z,21.6
2022-11-04T14:53:22.451Z,21.1
2022-11-04T14:55:39.977Z,21.3
2022-11-04T14:57:57.682Z,21.4
2022-11-04T15:00:15.456Z,21.2
2022-11-04T15:02:33.241Z,21.2
2022-11-04T15:05:28.121Z,21
2022-11-04T15:07:45.889Z,21.3
2022-11-04T15:10:03.381Z,21.2
2022-11-04T15:12:21.285Z,21.3
2022-11-04T15:14:38.679Z,21.5
2022-11-04T15:16:56.367Z,21.3
2022-11-04T15:21:31.602Z,21.3
2022-11-04T15:23:49.160Z,21.4
2022-11-04T15:26:06.747Z,21.2
2022-11-04T15:28:24.674Z,21.4
2022-11-04T15:30:42.094Z,21.5
2022-11-04T15:32:59.687Z,21.4
2022-11-04T15:35:17.125Z,21.2
2022-11-04T15:37:34.769Z,21.3
2022-11-04T15:42:09.996Z,21.4
2022-11-04T15:44:27.641Z,21.2
2022-11-04T15:46:45.227Z,21.1
2022-11-04T15:49:02.841Z,21.2
2022-11-04T15:51:20.463Z,21.2
2022-11-04T15:55:55.688Z,21.2
2022-11-04T15:58:13.247Z,21.3
2022-11-04T16:02:48.596Z,21.3
2022-11-04T16:05:06.210Z,21.1
2022-11-04T16:07:24.033Z,21
2022-11-04T16:11:59.411Z,21.4
2022-11-04T16:16:34.926Z,21.2
2022-11-04T16:18:52.568Z,21.3
2022-11-04T16:21:10.238Z,21.2
2022-11-04T16:23:28.208Z,21.3
2022-11-04T16:25:45.662Z,21.2
2022-11-04T16:28:03.553Z,21
2022-11-04T16:30:21.235Z,21.2
2022-11-04T16:32:39.107Z,21.2
2022-11-04T16:34:56.861Z,21.1
2022-11-04T16:37:14.658Z,21.3
2022-11-04T16:41:50.060Z,21
2022-11-04T16:44:07.837Z,21.2
2022-11-04T16:46:25.380Z,21.3
2022-11-04T16:51:00.963Z,20.8
2022-11-04T16:53:18.963Z,21.2
2022-11-04T16:55:36.621Z,21.1
2022-11-04T16:57:54.708Z,21.2
2022-11-04T17:00:12.457Z,20.8
2022-11-04T17:02:30.324Z,21.3
2022-11-04T17:04:47.674Z,21.1
2022-11-04T17:07:05.410Z,21.3
2022-11-04T17:11:28.972Z,20.8
2022-11-04T17:11:44.254Z,20.9
2022-11-04T17:14:01.902Z,20.9
2022-11-04T17:16:19.732Z,21.2
2022-11-04T17:20:54.821Z,21
2022-11-04T17:25:30.496Z,21.3
2022-11-04T17:27:47.918Z,21
2022-11-04T17:36:43.100Z,21.3
2022-11-04T17:36:58.479Z,20.9
2022-11-04T17:39:16.059Z,21.1
2022-11-04T17:41:33.624Z,21.3
2022-11-04T17:43:51.377Z,21.1
2022-11-04T17:46:09.369Z,21.2
2022-11-04T17:48:26.670Z,21.3
2022-11-04T17:50:44.230Z,21.3
2022-11-04T17:53:01.973Z,21.1
2022-11-04T17:55:04.449Z,21
2022-11-04T17:55:23.247Z,20.9
2022-11-04T17:57:37.520Z,21.2
2022-11-04T17:59:55.032Z,21
2022-11-04T18:02:12.908Z,21.1
2022-11-04T18:04:30.512Z,20.9
2022-11-04T18:06:48.253Z,20.9
2022-11-04T18:09:05.715Z,21.1
2022-11-04T18:13:41.287Z,21.2
2022-11-04T18:15:58.857Z,21.3
2022-11-04T18:18:16.508Z,21.2
2022-11-04T18:20:34.416Z,21.1
2022-11-04T18:25:10.081Z,21.2
2022-11-04T18:27:27.493Z,21
2022-11-04T18:29:45.286Z,21
2022-11-04T18:32:03.322Z,21.2
2022-11-04T18:36:38.432Z,21.2
2022-11-04T18:38:56.097Z,21.4
2022-11-04T18:41:14.040Z,21.1
2022-11-04T18:43:31.757Z,20.9
2022-11-04T18:45:49.778Z,21
2022-11-04T18:48:07.468Z,21.1
2022-11-04T18:50:25.211Z,21.4
2022-11-04T18:55:00.898Z,21.1
2022-11-04T18:59:36.057Z,21.1
2022-11-04T19:01:54.190Z,21
2022-11-04T19:04:11.766Z,20.9
2022-11-04T19:08:47.579Z,20.9
2022-11-04T19:13:50.725Z,20.9
2022-11-04T19:16:08.425Z,21
2022-11-04T19:18:26.133Z,21.3
2022-11-04T19:20:43.836Z,21.3
2022-11-04T19:25:19.223Z,21.2
2022-11-04T19:27:36.744Z,21.4
2022-11-04T19:30:11.031Z,21.1
2022-11-04T19:32:28.595Z,20.9
2022-11-04T19:34:46.382Z,20.8
2022-11-04T19:37:03.974Z,21.1
2022-11-04T19:39:21.697Z,20.7
2022-11-04T19:41:39.219Z,21.2
2022-11-04T19:43:57.016Z,21
2022-11-04T19:46:14.715Z,20.9
2022-11-04T19:48:32.512Z,20.8
2022-11-04T19:53:07.962Z,20.9
2022-11-04T19:55:25.551Z,20.9
2022-11-04T19:57:43.211Z,20.8
2022-11-04T20:00:00.935Z,20.8
2022-11-04T20:02:18.897Z,20.8
2022-11-04T20:04:36.296Z,20.9
2022-11-04T20:06:54.095Z,20.9
2022-11-04T20:09:12.060Z,20.8
2022-11-04T20:11:29.396Z,20.9
2022-11-04T20:16:04.875Z,20.9
2022-11-04T20:18:22.519Z,20.9
2022-11-04T20:20:40.081Z,21.1
2022-11-04T20:25:15.545Z,21
2022-11-04T20:27:33.204Z,21.1
2022-11-04T20:29:50.940Z,21
2022-11-04T20:32:08.688Z,21
2022-11-04T20:34:30.187Z,20.8
2022-11-04T20:36:44.060Z,20.8
2022-11-04T20:39:01.729Z,20.8
2022-11-04T20:41:19.592Z,21
2022-11-04T20:43:37.143Z,20.7
2022-11-04T20:45:54.887Z,20.9
2022-11-04T20:48:12.929Z,20.9
2022-11-04T20:50:30.326Z,20.8
2022-11-04T20:52:48.106Z,20.8
2022-11-04T20:55:06.001Z,21
2022-11-04T20:57:23.551Z,20.9
2022-11-04T20:59:40.943Z,21.2
2022-11-04T21:01:58.838Z,20.9
2022-11-04T21:04:16.398Z,20.9
2022-11-04T21:06:34.020Z,21.3
2022-11-04T21:08:51.709Z,20.9
2022-11-04T21:11:09.414Z,21
2022-11-04T21:13:27.295Z,20.9
2022-11-04T21:15:44.779Z,20.9
2022-11-04T21:18:02.433Z,21.3
2022-11-04T21:20:20.147Z,21.1
2022-11-04T21:22:37.934Z,20.8
2022-11-04T21:24:55.586Z,20.7
2022-11-04T21:27:13.341Z,20.8
2022-11-04T21:31:48.647Z,20.8
2022-11-04T21:34:06.268Z,20.9
2022-11-04T21:36:23.867Z,20.8
2022-11-04T21:38:41.548Z,21
2022-11-04T21:40:59.540Z,21
2022-11-04T21:43:17.049Z,20.9
2022-11-04T21:45:34.744Z,20.9
2022-11-04T21:47:52.506Z,20.8
2022-11-04T21:50:13.870Z,20.9
2022-11-04T21:52:27.677Z,21.1
2022-11-04T21:54:45.422Z,21.5
2022-11-04T21:57:02.977Z,21
2022-11-04T21:59:20.719Z,21.1
2022-11-04T22:01:38.614Z,20.8
2022-11-04T22:03:56.225Z,20.9
2022-11-04T22:06:14.421Z,20.8
2022-11-04T22:08:31.605Z,20.8
2022-11-04T22:10:49.434Z,20.9
2022-11-04T22:13:07.054Z,20.8
2022-11-04T22:15:24.718Z,20.9
2022-11-04T22:17:42.550Z,20.8
2022-11-04T22:20:00.394Z,21.2
2022-11-04T22:22:17.851Z,20.9
2022-11-04T22:24:35.601Z,20.7
2022-11-04T22:26:53.511Z,20.9
2022-11-04T22:29:11.034Z,20.9
2022-11-04T22:31:28.649Z,20.9
2022-11-04T22:33:31.975Z,20.8
2022-11-04T22:33:46.417Z,20.6
2022-11-04T22:36:04.129Z,21.1
2022-11-04T22:38:21.880Z,20.9
2022-11-04T22:40:24.248Z,21.1
2022-11-04T22:40:39.548Z,20.8
2022-11-04T22:42:57.250Z,20.9
2022-11-04T22:45:16.793Z,21
2022-11-04T22:47:32.725Z,20.9
2022-11-04T22:49:50.426Z,20.9
2022-11-04T22:52:08.153Z,20.9
2022-11-04T22:54:25.923Z,21
2022-11-04T22:56:43.567Z,20.9
2022-11-04T22:59:01.336Z,20.9
2022-11-04T23:01:19.071Z,20.9
2022-11-04T23:03:36.825Z,21.1
2022-11-04T23:05:54.481Z,20.8
2022-11-04T23:08:12.360Z,20.9
2022-11-04T23:10:29.781Z,20.9
2022-11-04T23:12:47.687Z,21.1
2022-11-04T23:15:05.117Z,21.4
2022-11-04T23:17:22.718Z,21.5
2022-11-04T23:19:40.480Z,20.9
2022-11-04T23:21:58.286Z,21
2022-11-04T23:24:15.803Z,20.9
2022-11-04T23:26:33.555Z,21
2022-11-04T23:28:51.120Z,21
2022-11-04T23:31:08.853Z,20.9
2022-11-04T23:33:26.635Z,20.9
2022-11-04T23:35:44.369Z,20.9
2022-11-04T23:38:02.086Z,21
2022-11-04T23:40:19.837Z,21
2022-11-04T23:42:37.490Z,21
2022-11-04T23:44:55.167Z,21
2022-11-04T23:47:12.902Z,20.9
2022-11-04T23:49:30.551Z,20.8
2022-11-04T23:51:48.188Z,21.2
2022-11-04T23:54:05.748Z,21.4
2022-11-04T23:56:23.505Z,21.1
2022-11-04T23:58:41.448Z,21
